Time;durP1;ratioP1;P1;durP2;ratioP2;P2;SDS_P1;SDS_P2;PMS_P1;PMS_P2;Temp;Humidity;BMP_temperature;BMP_pressure;BME280_temperature;BME280_humidity;BME280_pressure;Samples;Min_cycle;Max_cycle;Signal;HPM_P1;HPM_P2
2022/06/16 00:00:58;;;;;;;5.47;3.45;;;20.20;99.90;;;;;;6712181;88;20307;-76
2022/06/16 00:11:17;;;;;;;5.53;3.10;;;20.00;99.90;;;;;;6715068;88;20205;-78
2022/06/16 00:21:18;;;;;;;6.62;3.30;;;20.00;99.90;;;;;;6710983;88;20216;-77
2022/06/16 00:31:21;;;;;;;6.93;3.40;;;20.00;99.90;;;;;;6712294;88;20215;-77
2022/06/16 00:41:22;;;;;;;9.27;3.47;;;19.80;99.90;;;;;;6713412;88;20596;-76
2022/06/16 00:51:29;;;;;;;7.12;3.40;;;19.90;99.90;;;;;;6715290;88;20204;-79
2022/06/16 01:01:31;;;;;;;5.60;2.95;;;19.50;99.90;;;;;;6716351;88;20662;-77
2022/06/16 01:22:43;;;;;;;6.62;3.67;;;19.30;99.90;;;;;;6718460;88;20258;-79
2022/06/16 01:33:02;;;;;;;8.90;3.60;;;19.00;99.90;;;;;;6715945;88;20182;-76
2022/06/16 01:43:28;;;;;;;8.75;3.72;;;18.90;99.90;;;;;;6710556;88;20573;-76
2022/06/16 01:53:42;;;;;;;6.90;3.47;;;18.90;99.90;;;;;;6709363;88;20178;-79
2022/06/16 02:03:54;;;;;;;7.50;3.72;;;18.70;99.90;;;;;;6715618;88;20214;-77
2022/06/16 02:13:59;;;;;;;8.75;3.72;;;18.50;99.90;;;;;;6714336;88;20170;-75
2022/06/16 02:24:05;;;;;;;7.65;3.75;;;18.40;99.90;;;;;;6718359;88;20255;-77
2022/06/16 02:34:14;;;;;;;8.30;3.53;;;18.40;99.90;;;;;;6717054;88;20564;-76
2022/06/16 02:44:39;;;;;;;10.20;4.07;;;18.30;99.90;;;;;;6714732;88;20577;-76
2022/06/16 02:55:07;;;;;;;8.48;4.00;;;18.10;99.90;;;;;;6714602;88;20190;-76
2022/06/16 03:05:09;;;;;;;7.95;4.00;;;18.00;99.90;;;;;;6715562;88;21445;-76
2022/06/16 03:15:10;;;;;;;6.68;3.92;;;17.80;99.90;;;;;;6715490;88;20334;-76
2022/06/16 03:25:11;;;;;;;10.23;4.32;;;17.70;99.90;;;;;;6715891;88;20193;-77
2022/06/16 03:35:12;;;;;;;9.68;4.37;;;17.50;99.90;;;;;;6716523;88;20668;-76
2022/06/16 03:45:13;;;;;;;8.18;4.30;;;17.30;99.90;;;;;;6718034;88;20203;-75
2022/06/16 03:55:13;;;;;;;8.52;4.25;;;17.20;99.90;;;;;;6717850;88;20203;-76
2022/06/16 04:05:14;;;;;;;7.37;4.35;;;17.40;99.90;;;;;;6712331;88;20192;-76
2022/06/16 04:15:15;;;;;;;8.35;4.57;;;17.20;99.90;;;;;;6714203;88;20189;-76
2022/06/16 04:25:17;;;;;;;8.00;4.35;;;17.00;99.90;;;;;;6718891;88;20190;-76
2022/06/16 04:35:18;;;;;;;9.30;3.90;;;17.00;99.90;;;;;;6716282;88;20296;-76
2022/06/16 04:45:19;;;;;;;9.55;4.50;;;17.00;99.90;;;;;;6715262;88;20194;-77
2022/06/16 04:55:20;;;;;;;10.73;4.70;;;16.90;99.90;;;;;;6716350;88;20222;-76
2022/06/16 05:05:20;;;;;;;8.70;4.80;;;16.90;99.90;;;;;;6717950;88;20572;-76
2022/06/16 05:15:21;;;;;;;7.67;4.57;;;16.90;99.90;;;;;;6714397;88;20205;-76
2022/06/16 05:25:21;;;;;;;8.80;4.75;;;16.90;99.90;;;;;;6717259;88;21111;-76
2022/06/16 05:35:22;;;;;;;6.70;4.40;;;17.00;99.90;;;;;;6728996;77;20259;-77
2022/06/16 05:45:23;;;;;;;8.95;4.25;;;17.20;99.90;;;;;;6739708;88;20536;-76
2022/06/16 05:55:24;;;;;;;8.63;4.07;;;17.40;99.90;;;;;;6739578;88;20189;-75
2022/06/16 06:05:26;;;;;;;8.93;4.47;;;17.70;99.90;;;;;;6739279;88;20212;-76
2022/06/16 06:26:04;;;;;;;9.75;3.70;;;18.50;99.90;;;;;;6731144;88;20184;-76
2022/06/16 06:36:05;;;;;;;5.62;3.20;;;18.70;99.90;;;;;;6735272;88;20229;-76
2022/06/16 06:46:06;;;;;;;8.98;3.58;;;19.80;99.90;;;;;;6734409;88;20314;-76
2022/06/16 06:56:08;;;;;;;5.65;3.00;;;20.50;99.90;;;;;;6737588;88;20181;-76
2022/06/16 07:06:09;;;;;;;6.28;3.62;;;21.30;99.90;;;;;;6748778;88;20302;-77
2022/06/16 07:16:10;;;;;;;8.37;3.10;;;21.60;99.90;;;;;;6737870;88;20199;-76
2022/06/16 07:26:11;;;;;;;10.48;3.00;;;21.90;99.90;;;;;;6734608;88;20189;-76
2022/06/16 07:36:12;;;;;;;0.37;0.30;;;22.80;99.30;;;;;;6738793;88;20263;-75
2022/06/16 07:46:12;;;;;;;6.03;3.20;;;23.00;99.40;;;;;;6742078;88;20266;-77
2022/06/16 07:56:13;;;;;;;6.68;3.22;;;23.00;99.40;;;;;;6735235;88;20214;-77
2022/06/16 08:06:17;;;;;;;7.75;3.30;;;23.10;98.80;;;;;;6733873;88;20615;-77
2022/06/16 08:16:17;;;;;;;7.22;3.35;;;24.00;97.50;;;;;;6749593;88;20185;-79
2022/06/16 08:26:18;;;;;;;6.68;2.72;;;24.40;96.40;;;;;;6751100;88;20221;-78
2022/06/16 08:36:20;;;;;;;4.65;2.83;;;24.40;96.20;;;;;;6744659;88;20185;-79
2022/06/16 08:46:23;;;;;;;10.50;2.90;;;24.90;94.80;;;;;;6764052;88;20185;-79
2022/06/16 08:56:33;;;;;;;5.00;2.53;;;25.00;93.90;;;;;;6757969;88;20197;-79
2022/06/16 09:07:08;;;;;;;3.53;1.92;;;26.00;93.20;;;;;;6736897;88;20181;-79
2022/06/16 09:17:22;;;;;;;7.50;2.80;;;26.40;92.30;;;;;;6738942;88;20635;-79
2022/06/16 09:27:28;;;;;;;6.15;2.00;;;26.80;91.50;;;;;;6737996;88;20194;-79
2022/06/16 09:37:55;;;;;;;7.75;2.12;;;27.40;89.80;;;;;;6738256;88;20698;-78
2022/06/16 09:48:03;;;;;;;2.42;1.35;;;28.00;84.80;;;;;;6739989;88;20213;-80
2022/06/16 09:58:29;;;;;;;4.18;1.90;;;28.20;83.10;;;;;;6734475;88;20204;-79
2022/06/16 10:09:05;;;;;;;4.35;2.12;;;28.40;79.80;;;;;;6727013;88;20240;-78
2022/06/16 10:19:06;;;;;;;5.65;1.80;;;28.90;78.20;;;;;;6742847;88;20314;-79
2022/06/16 10:29:25;;;;;;;3.53;1.83;;;28.20;76.90;;;;;;6746136;88;20283;-79
2022/06/16 10:39:38;;;;;;;3.35;1.80;;;29.10;77.20;;;;;;6734358;88;20217;-79
2022/06/16 10:49:43;;;;;;;3.92;1.80;;;30.20;73.90;;;;;;6738996;88;20199;-77
2022/06/16 10:59:50;;;;;;;4.03;1.60;;;29.60;73.30;;;;;;6751441;88;20723;-80
2022/06/16 11:09:51;;;;;;;3.45;1.70;;;30.20;71.90;;;;;;6752345;88;20197;-80
2022/06/16 11:20:03;;;;;;;6.80;1.80;;;30.80;68.90;;;;;;6748628;88;20631;-80
2022/06/16 11:30:26;;;;;;;3.30;1.60;;;31.10;69.00;;;;;;6748123;88;20190;-81
2022/06/16 11:50:53;;;;;;;3.65;1.20;;;31.60;64.70;;;;;;6702495;88;20185;-80
2022/06/16 12:01:12;;;;;;;4.65;1.50;;;31.90;64.90;;;;;;6690882;88;20233;-80
2022/06/16 12:11:51;;;;;;;3.47;1.20;;;31.70;63.70;;;;;;6689222;89;20185;-80
2022/06/16 12:22:17;;;;;;;3.92;1.30;;;31.70;61.90;;;;;;6669407;89;20220;-80
2022/06/16 12:32:29;;;;;;;4.03;1.10;;;31.40;63.00;;;;;;6673805;88;20411;-81
2022/06/16 12:42:36;;;;;;;1.98;1.08;;;31.70;60.50;;;;;;6687648;89;20192;-80
2022/06/16 12:52:54;;;;;;;3.62;1.20;;;32.00;58.80;;;;;;6688789;88;20202;-81
2022/06/16 13:03:05;;;;;;;2.70;1.12;;;31.40;58.30;;;;;;6670544;89;20213;-80
2022/06/16 13:13:07;;;;;;;2.65;1.08;;;31.20;58.20;;;;;;6673043;89;20184;-78
2022/06/16 13:23:17;;;;;;;1.92;1.00;;;31.40;57.10;;;;;;6673342;89;20334;-79
2022/06/16 13:33:20;;;;;;;2.97;1.02;;;31.30;58.00;;;;;;6676959;89;20231;-81
2022/06/16 13:43:22;;;;;;;2.15;1.15;;;32.10;56.80;;;;;;6674168;89;20745;-79
2022/06/16 13:53:43;;;;;;;3.00;0.90;;;31.70;57.60;;;;;;6671420;89;20183;-79
2022/06/16 14:03:58;;;;;;;2.10;0.97;;;32.00;55.80;;;;;;6696844;88;20529;-80
2022/06/16 14:14:18;;;;;;;1.30;0.90;;;32.20;56.60;;;;;;6709939;88;20240;-78
2022/06/16 14:24:36;;;;;;;4.75;1.30;;;30.90;54.90;;;;;;6698212;89;20658;-80
2022/06/16 14:34:43;;;;;;;2.28;1.23;;;31.20;57.20;;;;;;6695168;89;20191;-79
2022/06/16 14:44:55;;;;;;;6.10;2.42;;;31.30;58.40;;;;;;6697241;88;20207;-79
2022/06/16 14:55:02;;;;;;;;;;;31.60;59.10;;;;;;6687859;88;20213;-79
2022/06/16 15:05:09;;;;;;;4.05;1.23;;;31.70;58.70;;;;;;6697040;89;20064;-79
2022/06/16 15:15:16;;;;;;;3.22;1.40;;;31.30;58.90;;;;;;6697041;89;20213;-80
2022/06/16 15:25:28;;;;;;;4.95;1.73;;;30.80;58.80;;;;;;6696286;89;20699;-79
2022/06/16 15:36:14;;;;;;;;;;;31.30;59.50;;;;;;6696240;87;20224;-79
2022/06/16 15:45:58;;;;;;;3.40;1.40;;;31.30;60.40;;;;;;6698856;88;20101;-79
2022/06/16 15:56:01;;;;;;;23.55;11.20;;;31.90;59.80;;;;;;6693117;89;20279;-78
2022/06/16 16:06:02;;;;;;;38.92;15.45;;;31.40;59.50;;;;;;6697364;88;20186;-79
2022/06/16 16:16:13;;;;;;;2.35;1.48;;;31.50;59.40;;;;;;6698005;89;20215;-79
2022/06/16 16:26:22;;;;;;;3.53;1.30;;;31.70;60.00;;;;;;6693182;88;20204;-79
2022/06/16 16:36:57;;;;;;;4.15;1.60;;;30.50;60.60;;;;;;6698306;88;20219;-79
2022/06/16 16:47:12;;;;;;;2.42;1.50;;;30.00;60.80;;;;;;6684965;89;20697;-78
2022/06/16 16:57:21;;;;;;;4.70;1.30;;;29.30;61.90;;;;;;6687105;88;20602;-78
2022/06/16 17:07:22;;;;;;;3.72;1.60;;;29.20;61.50;;;;;;6690732;89;20333;-78
2022/06/16 17:17:23;;;;;;;3.55;1.50;;;28.80;62.30;;;;;;6691055;88;20180;-78
2022/06/16 17:27:24;;;;;;;5.47;1.83;;;28.60;63.30;;;;;;6690516;89;20321;-79
2022/06/16 17:37:37;;;;;;;3.92;1.80;;;28.00;63.30;;;;;;6691489;88;20191;-79
2022/06/16 17:47:38;;;;;;;6.50;1.80;;;28.10;63.60;;;;;;6693803;88;20817;-79
2022/06/16 18:08:06;;;;;;;4.37;1.52;;;27.40;66.40;;;;;;6690134;89;20658;-78
2022/06/16 18:18:15;;;;;;;4.80;1.80;;;27.30;67.10;;;;;;6691933;89;20284;-79
2022/06/16 18:28:20;;;;;;;3.50;1.45;;;26.40;68.10;;;;;;6689452;89;20213;-78
2022/06/16 18:38:20;;;;;;;2.92;1.50;;;25.80;69.20;;;;;;6688078;89;20175;-80
2022/06/16 18:48:22;;;;;;;4.85;1.80;;;25.70;69.30;;;;;;6692082;88;20194;-78
2022/06/16 18:58:23;;;;;;;2.90;1.60;;;25.40;70.40;;;;;;6690082;87;20328;-78
2022/06/16 19:08:24;;;;;;;2.28;1.58;;;25.50;70.70;;;;;;6687876;87;20220;-78
2022/06/16 19:18:28;;;;;;;3.80;1.60;;;25.20;71.30;;;;;;6689698;87;20403;-78
2022/06/16 19:28:29;;;;;;;4.50;1.65;;;24.90;73.20;;;;;;6690354;88;20232;-78
2022/06/16 19:38:42;;;;;;;4.57;1.67;;;24.40;73.70;;;;;;6692053;87;20261;-77
2022/06/16 19:59:03;;;;;;;5.32;1.60;;;23.50;75.70;;;;;;6720626;87;20191;-78
2022/06/16 20:09:04;;;;;;;7.12;1.60;;;23.20;76.40;;;;;;6713351;87;20691;-79
2022/06/16 20:19:06;;;;;;;3.53;1.60;;;22.80;77.80;;;;;;6712157;88;20183;-79
2022/06/16 20:29:07;;;;;;;2.05;1.35;;;22.80;78.50;;;;;;6709939;89;20312;-78
2022/06/16 20:39:08;;;;;;;4.80;2.40;;;22.70;78.90;;;;;;6711375;87;20214;-77
2022/06/16 20:49:23;;;;;;;3.42;1.80;;;22.30;80.20;;;;;;6706360;87;20221;-77
2022/06/16 21:09:44;;;;;;;3.30;2.10;;;21.80;82.30;;;;;;6685976;87;20191;-77
2022/06/16 21:19:47;;;;;;;3.08;1.50;;;21.50;83.90;;;;;;6690370;87;20199;-77
2022/06/16 21:29:49;;;;;;;2.83;2.03;;;21.30;85.10;;;;;;6691533;87;20273;-77
2022/06/16 21:39:51;;;;;;;5.70;2.40;;;21.20;86.00;;;;;;6687437;87;20191;-77
2022/06/16 21:49:56;;;;;;;4.50;2.40;;;21.20;86.30;;;;;;6693180;87;20657;-78
2022/06/16 21:59:57;;;;;;;4.40;2.50;;;21.10;88.50;;;;;;6687671;88;20333;-77
2022/06/16 22:09:57;;;;;;;4.50;2.42;;;20.90;90.00;;;;;;6687091;89;21098;-77
2022/06/16 22:19:59;;;;;;;4.70;2.33;;;20.70;90.80;;;;;;6688652;88;20239;-77
2022/06/16 22:29:59;;;;;;;3.72;2.30;;;20.30;92.10;;;;;;6687795;88;20987;-77
2022/06/16 22:50:21;;;;;;;4.97;2.85;;;20.10;92.90;;;;;;6685743;89;20266;-77
2022/06/16 23:00:24;;;;;;;4.65;2.47;;;19.90;94.20;;;;;;6686411;89;20212;-77
2022/06/16 23:10:25;;;;;;;4.53;2.50;;;19.70;95.00;;;;;;6687003;88;20226;-77
2022/06/16 23:20:26;;;;;;;3.67;2.20;;;19.50;97.20;;;;;;6686161;89;20231;-77
2022/06/16 23:30:27;;;;;;;3.15;1.92;;;19.30;97.50;;;;;;6688372;88;20273;-77
2022/06/16 23:51:33;;;;;;;4.40;2.10;;;19.10;99.90;;;;;;6654467;89;20708;-79
